sensor_id;sensor_type;location;lat;lon;timestamp;temperature;humidity
55211;DHT22;41082;52.822;6.666;2024-03-08T00:00:15;2.50;99.90
55211;DHT22;41082;52.822;6.666;2024-03-08T00:02:44;2.50;99.90
55211;DHT22;41082;52.822;6.666;2024-03-08T00:05:10;2.50;99.90
55211;DHT22;41082;52.822;6.666;2024-03-08T00:07:36;2.40;99.90
55211;DHT22;41082;52.822;6.666;2024-03-08T00:10:06;2.40;99.90
55211;DHT22;41082;52.822;6.666;2024-03-08T00:12:36;2.40;99.90
55211;DHT22;41082;52.822;6.666;2024-03-08T00:15:02;2.40;99.90
55211;DHT22;41082;52.822;6.666;2024-03-08T00:17:28;2.40;99.90
55211;DHT22;41082;52.822;6.666;2024-03-08T00:19:54;2.40;99.90
55211;DHT22;41082;52.822;6.666;2024-03-08T00:22:19;2.30;99.90
55211;DHT22;41082;52.822;6.666;2024-03-08T00:24:45;2.30;99.90
55211;DHT22;41082;52.822;6.666;2024-03-08T00:27:11;2.30;99.90
55211;DHT22;41082;52.822;6.666;2024-03-08T00:29:37;2.30;99.90
55211;DHT22;41082;52.822;6.666;2024-03-08T00:32:05;2.20;99.90
55211;DHT22;41082;52.822;6.666;2024-03-08T00:34:35;2.20;99.90
55211;DHT22;41082;52.822;6.666;2024-03-08T00:37:02;2.20;99.90
55211;DHT22;41082;52.822;6.666;2024-03-08T00:39:28;2.20;99.90
55211;DHT22;41082;52.822;6.666;2024-03-08T00:41:54;2.20;99.90
55211;DHT22;41082;52.822;6.666;2024-03-08T00:44:19;2.20;99.90
55211;DHT22;41082;52.822;6.666;2024-03-08T00:46:45;2.10;99.90
55211;DHT22;41082;52.822;6.666;2024-03-08T00:49:11;2.10;99.90
55211;DHT22;41082;52.822;6.666;2024-03-08T00:51:38;2.10;99.90
55211;DHT22;41082;52.822;6.666;2024-03-08T00:54:03;2.00;99.90
55211;DHT22;41082;52.822;6.666;2024-03-08T00:56:29;2.00;99.90
55211;DHT22;41082;52.822;6.666;2024-03-08T00:58:55;2.00;99.90
55211;DHT22;41082;52.822;6.666;2024-03-08T01:01:20;2.00;99.90
55211;DHT22;41082;52.822;6.666;2024-03-08T01:03:46;2.00;99.90
55211;DHT22;41082;52.822;6.666;2024-03-08T01:06:11;2.00;99.90
55211;DHT22;41082;52.822;6.666;2024-03-08T01:08:37;1.90;99.90
55211;DHT22;41082;52.822;6.666;2024-03-08T01:11:04;1.90;99.90
55211;DHT22;41082;52.822;6.666;2024-03-08T01:13:30;1.90;99.90
55211;DHT22;41082;52.822;6.666;2024-03-08T01:15:56;1.90;99.90
55211;DHT22;41082;52.822;6.666;2024-03-08T01:18:22;1.90;99.90
55211;DHT22;41082;52.822;6.666;2024-03-08T01:20:47;1.90;99.90
55211;DHT22;41082;52.822;6.666;2024-03-08T01:23:13;1.90;99.90
55211;DHT22;41082;52.822;6.666;2024-03-08T01:25:39;1.90;99.90
55211;DHT22;41082;52.822;6.666;2024-03-08T01:28:05;1.90;99.90
55211;DHT22;41082;52.822;6.666;2024-03-08T01:30:30;1.90;99.90
55211;DHT22;41082;52.822;6.666;2024-03-08T01:32:58;1.90;99.90
55211;DHT22;41082;52.822;6.666;2024-03-08T01:35:24;1.90;99.90
55211;DHT22;41082;52.822;6.666;2024-03-08T01:37:49;1.80;99.90
55211;DHT22;41082;52.822;6.666;2024-03-08T01:40:15;1.90;99.90
55211;DHT22;41082;52.822;6.666;2024-03-08T01:42:42;1.90;99.90
55211;DHT22;41082;52.822;6.666;2024-03-08T01:45:08;1.80;99.90
55211;DHT22;41082;52.822;6.666;2024-03-08T01:47:34;1.90;99.90
55211;DHT22;41082;52.822;6.666;2024-03-08T01:50:01;1.80;99.90
55211;DHT22;41082;52.822;6.666;2024-03-08T01:52:31;1.90;99.90
55211;DHT22;41082;52.822;6.666;2024-03-08T01:54:59;1.90;99.90
55211;DHT22;41082;52.822;6.666;2024-03-08T01:57:28;1.80;99.90
55211;DHT22;41082;52.822;6.666;2024-03-08T01:59:54;1.80;99.90
55211;DHT22;41082;52.822;6.666;2024-03-08T02:02:22;1.80;99.90
55211;DHT22;41082;52.822;6.666;2024-03-08T02:04:48;1.80;99.90
55211;DHT22;41082;52.822;6.666;2024-03-08T02:07:14;1.80;99.90
55211;DHT22;41082;52.822;6.666;2024-03-08T02:09:40;1.80;99.90
55211;DHT22;41082;52.822;6.666;2024-03-08T02:12:06;1.80;99.90
55211;DHT22;41082;52.822;6.666;2024-03-08T02:14:33;1.80;99.90
55211;DHT22;41082;52.822;6.666;2024-03-08T02:17:02;1.80;99.90
55211;DHT22;41082;52.822;6.666;2024-03-08T02:19:28;1.80;99.90
55211;DHT22;41082;52.822;6.666;2024-03-08T02:21:53;1.80;99.90
55211;DHT22;41082;52.822;6.666;2024-03-08T02:24:19;1.80;99.90
55211;DHT22;41082;52.822;6.666;2024-03-08T02:26:45;1.80;99.90
55211;DHT22;41082;52.822;6.666;2024-03-08T02:29:11;1.80;99.90
55211;DHT22;41082;52.822;6.666;2024-03-08T02:31:37;1.80;99.90
55211;DHT22;41082;52.822;6.666;2024-03-08T02:34:04;1.80;99.90
55211;DHT22;41082;52.822;6.666;2024-03-08T02:36:30;1.70;99.90
55211;DHT22;41082;52.822;6.666;2024-03-08T02:39:01;1.70;99.90
55211;DHT22;41082;52.822;6.666;2024-03-08T02:41:27;1.80;99.90
55211;DHT22;41082;52.822;6.666;2024-03-08T02:43:53;1.70;99.90
55211;DHT22;41082;52.822;6.666;2024-03-08T02:46:18;1.70;99.90
55211;DHT22;41082;52.822;6.666;2024-03-08T02:48:44;1.70;99.90
55211;DHT22;41082;52.822;6.666;2024-03-08T02:51:09;1.70;99.90
55211;DHT22;41082;52.822;6.666;2024-03-08T02:53:36;1.70;99.90
55211;DHT22;41082;52.822;6.666;2024-03-08T02:56:03;1.60;99.90
55211;DHT22;41082;52.822;6.666;2024-03-08T02:58:28;1.60;99.90
55211;DHT22;41082;52.822;6.666;2024-03-08T03:00:54;1.70;99.90
55211;DHT22;41082;52.822;6.666;2024-03-08T03:03:20;1.60;99.90
55211;DHT22;41082;52.822;6.666;2024-03-08T03:05:46;1.60;99.90
55211;DHT22;41082;52.822;6.666;2024-03-08T03:08:11;1.60;99.90
55211;DHT22;41082;52.822;6.666;2024-03-08T03:10:38;1.60;99.90
55211;DHT22;41082;52.822;6.666;2024-03-08T03:13:04;1.60;99.90
55211;DHT22;41082;52.822;6.666;2024-03-08T03:15:33;1.60;99.90
55211;DHT22;41082;52.822;6.666;2024-03-08T03:17:59;1.60;99.90
55211;DHT22;41082;52.822;6.666;2024-03-08T03:20:25;1.60;99.90
55211;DHT22;41082;52.822;6.666;2024-03-08T03:22:54;1.50;99.90
55211;DHT22;41082;52.822;6.666;2024-03-08T03:25:22;1.50;99.90
55211;DHT22;41082;52.822;6.666;2024-03-08T03:28:01;1.50;99.90
55211;DHT22;41082;52.822;6.666;2024-03-08T03:30:28;1.50;99.90
55211;DHT22;41082;52.822;6.666;2024-03-08T03:32:59;1.50;99.90
55211;DHT22;41082;52.822;6.666;2024-03-08T03:35:27;1.50;99.90
55211;DHT22;41082;52.822;6.666;2024-03-08T03:37:53;1.40;99.90
55211;DHT22;41082;52.822;6.666;2024-03-08T03:40:38;1.40;99.90
55211;DHT22;41082;52.822;6.666;2024-03-08T03:43:04;1.40;99.90
55211;DHT22;41082;52.822;6.666;2024-03-08T03:45:30;1.40;99.90
55211;DHT22;41082;52.822;6.666;2024-03-08T03:48:01;1.50;99.90
55211;DHT22;41082;52.822;6.666;2024-03-08T03:50:27;1.50;99.90
55211;DHT22;41082;52.822;6.666;2024-03-08T03:52:53;1.50;99.90
55211;DHT22;41082;52.822;6.666;2024-03-08T03:55:19;1.50;99.90
55211;DHT22;41082;52.822;6.666;2024-03-08T03:57:45;1.40;99.90
55211;DHT22;41082;52.822;6.666;2024-03-08T04:00:11;1.40;99.90
55211;DHT22;41082;52.822;6.666;2024-03-08T04:02:40;1.40;99.90
55211;DHT22;41082;52.822;6.666;2024-03-08T04:05:07;1.40;99.90
55211;DHT22;41082;52.822;6.666;2024-03-08T04:07:33;1.40;99.90
55211;DHT22;41082;52.822;6.666;2024-03-08T04:10:00;1.40;99.90
55211;DHT22;41082;52.822;6.666;2024-03-08T04:12:26;1.40;99.90
55211;DHT22;41082;52.822;6.666;2024-03-08T04:14:51;1.30;99.90
55211;DHT22;41082;52.822;6.666;2024-03-08T04:17:18;1.40;99.90
55211;DHT22;41082;52.822;6.666;2024-03-08T04:19:44;1.30;99.90
55211;DHT22;41082;52.822;6.666;2024-03-08T04:22:10;1.30;99.90
55211;DHT22;41082;52.822;6.666;2024-03-08T04:24:35;1.40;99.90
55211;DHT22;41082;52.822;6.666;2024-03-08T04:27:01;1.30;99.90
55211;DHT22;41082;52.822;6.666;2024-03-08T04:29:26;1.30;99.90
55211;DHT22;41082;52.822;6.666;2024-03-08T04:31:52;1.30;99.90
55211;DHT22;41082;52.822;6.666;2024-03-08T04:34:20;1.30;99.90
55211;DHT22;41082;52.822;6.666;2024-03-08T04:36:47;1.30;99.90
55211;DHT22;41082;52.822;6.666;2024-03-08T04:39:13;1.30;99.90
55211;DHT22;41082;52.822;6.666;2024-03-08T04:41:39;1.30;99.90
55211;DHT22;41082;52.822;6.666;2024-03-08T04:44:05;1.30;99.90
55211;DHT22;41082;52.822;6.666;2024-03-08T04:46:30;1.30;99.90
55211;DHT22;41082;52.822;6.666;2024-03-08T04:48:56;1.30;99.90
55211;DHT22;41082;52.822;6.666;2024-03-08T04:51:24;1.30;99.90
55211;DHT22;41082;52.822;6.666;2024-03-08T04:53:50;1.30;99.90
55211;DHT22;41082;52.822;6.666;2024-03-08T04:56:16;1.20;99.90
55211;DHT22;41082;52.822;6.666;2024-03-08T04:58:41;1.20;99.90
55211;DHT22;41082;52.822;6.666;2024-03-08T05:01:07;1.20;99.90
55211;DHT22;41082;52.822;6.666;2024-03-08T05:03:35;1.20;99.90
55211;DHT22;41082;52.822;6.666;2024-03-08T05:06:01;1.20;99.90
55211;DHT22;41082;52.822;6.666;2024-03-08T05:08:27;1.20;99.90
55211;DHT22;41082;52.822;6.666;2024-03-08T05:10:52;1.20;99.90
55211;DHT22;41082;52.822;6.666;2024-03-08T05:13:18;1.20;99.90
55211;DHT22;41082;52.822;6.666;2024-03-08T05:15:44;1.20;99.90
55211;DHT22;41082;52.822;6.666;2024-03-08T05:18:13;1.20;99.90
55211;DHT22;41082;52.822;6.666;2024-03-08T05:20:40;1.20;99.90
55211;DHT22;41082;52.822;6.666;2024-03-08T05:23:06;1.10;99.90
55211;DHT22;41082;52.822;6.666;2024-03-08T05:25:32;1.20;99.90
55211;DHT22;41082;52.822;6.666;2024-03-08T05:27:58;1.10;99.90
55211;DHT22;41082;52.822;6.666;2024-03-08T05:30:23;1.10;99.90
55211;DHT22;41082;52.822;6.666;2024-03-08T05:32:49;1.10;99.90
55211;DHT22;41082;52.822;6.666;2024-03-08T05:35:14;1.10;99.90
55211;DHT22;41082;52.822;6.666;2024-03-08T05:37:41;1.10;99.90
55211;DHT22;41082;52.822;6.666;2024-03-08T05:40:08;1.10;99.90
55211;DHT22;41082;52.822;6.666;2024-03-08T05:42:36;1.00;99.90
55211;DHT22;41082;52.822;6.666;2024-03-08T05:45:06;1.00;99.90
55211;DHT22;41082;52.822;6.666;2024-03-08T05:47:32;1.00;99.90
55211;DHT22;41082;52.822;6.666;2024-03-08T05:50:00;1.00;99.90
55211;DHT22;41082;52.822;6.666;2024-03-08T05:52:27;1.00;99.90
55211;DHT22;41082;52.822;6.666;2024-03-08T05:54:52;1.00;99.90
55211;DHT22;41082;52.822;6.666;2024-03-08T05:57:18;1.00;99.90
55211;DHT22;41082;52.822;6.666;2024-03-08T05:59:44;1.00;99.90
55211;DHT22;41082;52.822;6.666;2024-03-08T06:02:10;1.00;99.90
55211;DHT22;41082;52.822;6.666;2024-03-08T06:04:36;1.00;99.90
55211;DHT22;41082;52.822;6.666;2024-03-08T06:07:01;1.00;99.90
55211;DHT22;41082;52.822;6.666;2024-03-08T06:09:29;1.00;99.90
55211;DHT22;41082;52.822;6.666;2024-03-08T06:11:55;1.00;99.90
55211;DHT22;41082;52.822;6.666;2024-03-08T06:14:20;0.90;99.90
55211;DHT22;41082;52.822;6.666;2024-03-08T06:16:46;1.00;99.90
55211;DHT22;41082;52.822;6.666;2024-03-08T06:19:13;1.00;99.90
55211;DHT22;41082;52.822;6.666;2024-03-08T06:21:39;0.90;99.90
55211;DHT22;41082;52.822;6.666;2024-03-08T06:24:05;1.00;99.90
55211;DHT22;41082;52.822;6.666;2024-03-08T06:26:30;1.00;99.90
55211;DHT22;41082;52.822;6.666;2024-03-08T06:28:56;1.00;99.90
55211;DHT22;41082;52.822;6.666;2024-03-08T06:31:22;1.00;99.90
55211;DHT22;41082;52.822;6.666;2024-03-08T06:33:49;1.00;99.90
55211;DHT22;41082;52.822;6.666;2024-03-08T06:36:18;1.00;99.90
55211;DHT22;41082;52.822;6.666;2024-03-08T06:38:50;1.00;99.90
55211;DHT22;41082;52.822;6.666;2024-03-08T06:41:15;1.10;99.90
55211;DHT22;41082;52.822;6.666;2024-03-08T06:43:42;1.10;99.90
55211;DHT22;41082;52.822;6.666;2024-03-08T06:46:08;1.10;99.90
55211;DHT22;41082;52.822;6.666;2024-03-08T06:48:34;1.20;99.90
55211;DHT22;41082;52.822;6.666;2024-03-08T06:51:00;1.10;99.90
55211;DHT22;41082;52.822;6.666;2024-03-08T06:53:26;1.20;99.90
55211;DHT22;41082;52.822;6.666;2024-03-08T06:55:51;1.20;99.90
55211;DHT22;41082;52.822;6.666;2024-03-08T06:58:17;1.20;99.90
55211;DHT22;41082;52.822;6.666;2024-03-08T07:00:43;1.20;99.90
55211;DHT22;41082;52.822;6.666;2024-03-08T07:03:09;1.20;99.90
55211;DHT22;41082;52.822;6.666;2024-03-08T07:05:37;1.30;99.90
55211;DHT22;41082;52.822;6.666;2024-03-08T07:08:05;1.30;99.90
55211;DHT22;41082;52.822;6.666;2024-03-08T07:10:31;1.30;99.90
55211;DHT22;41082;52.822;6.666;2024-03-08T07:12:57;1.30;99.90
55211;DHT22;41082;52.822;6.666;2024-03-08T07:15:23;1.40;99.90
55211;DHT22;41082;52.822;6.666;2024-03-08T07:17:49;1.40;99.90
55211;DHT22;41082;52.822;6.666;2024-03-08T07:20:15;1.50;99.90
55211;DHT22;41082;52.822;6.666;2024-03-08T07:22:47;1.50;99.90
55211;DHT22;41082;52.822;6.666;2024-03-08T07:25:13;1.60;99.90
55211;DHT22;41082;52.822;6.666;2024-03-08T07:27:57;1.60;99.90
55211;DHT22;41082;52.822;6.666;2024-03-08T07:30:25;1.70;99.90
55211;DHT22;41082;52.822;6.666;2024-03-08T07:33:09;1.80;99.90
55211;DHT22;41082;52.822;6.666;2024-03-08T07:35:38;1.90;99.90
55211;DHT22;41082;52.822;6.666;2024-03-08T07:38:08;2.00;99.90
55211;DHT22;41082;52.822;6.666;2024-03-08T07:40:41;2.00;99.90
55211;DHT22;41082;52.822;6.666;2024-03-08T07:43:10;2.10;99.90
55211;DHT22;41082;52.822;6.666;2024-03-08T07:45:40;2.10;99.90
55211;DHT22;41082;52.822;6.666;2024-03-08T07:48:07;2.20;99.90
55211;DHT22;41082;52.822;6.666;2024-03-08T07:50:39;2.30;99.90
55211;DHT22;41082;52.822;6.666;2024-03-08T07:53:09;2.40;99.90
55211;DHT22;41082;52.822;6.666;2024-03-08T07:55:35;2.50;99.90
55211;DHT22;41082;52.822;6.666;2024-03-08T07:58:04;2.50;99.90
55211;DHT22;41082;52.822;6.666;2024-03-08T08:00:30;2.60;99.90
55211;DHT22;41082;52.822;6.666;2024-03-08T08:02:57;2.60;99.90
55211;DHT22;41082;52.822;6.666;2024-03-08T08:05:22;2.70;99.90
55211;DHT22;41082;52.822;6.666;2024-03-08T08:07:48;2.80;99.90
55211;DHT22;41082;52.822;6.666;2024-03-08T08:10:15;2.80;99.90
55211;DHT22;41082;52.822;6.666;2024-03-08T08:12:49;2.90;99.90
55211;DHT22;41082;52.822;6.666;2024-03-08T08:15:15;2.90;99.90
55211;DHT22;41082;52.822;6.666;2024-03-08T08:17:44;3.00;99.90
55211;DHT22;41082;52.822;6.666;2024-03-08T08:20:11;3.10;99.90
55211;DHT22;41082;52.822;6.666;2024-03-08T08:22:38;3.10;99.90
55211;DHT22;41082;52.822;6.666;2024-03-08T08:25:07;3.20;99.90
55211;DHT22;41082;52.822;6.666;2024-03-08T08:27:33;3.30;99.90
55211;DHT22;41082;52.822;6.666;2024-03-08T08:29:58;3.30;99.90
55211;DHT22;41082;52.822;6.666;2024-03-08T08:32:24;3.40;99.90
55211;DHT22;41082;52.822;6.666;2024-03-08T08:34:50;3.50;99.90
55211;DHT22;41082;52.822;6.666;2024-03-08T08:37:16;3.50;99.90
55211;DHT22;41082;52.822;6.666;2024-03-08T08:39:42;3.60;99.90
55211;DHT22;41082;52.822;6.666;2024-03-08T08:42:07;3.60;99.90
55211;DHT22;41082;52.822;6.666;2024-03-08T08:44:35;3.60;99.90
55211;DHT22;41082;52.822;6.666;2024-03-08T08:47:01;3.70;99.90
55211;DHT22;41082;52.822;6.666;2024-03-08T08:49:29;3.70;99.90
55211;DHT22;41082;52.822;6.666;2024-03-08T08:51:56;3.70;99.90
55211;DHT22;41082;52.822;6.666;2024-03-08T08:54:24;3.80;99.90
55211;DHT22;41082;52.822;6.666;2024-03-08T08:56:51;3.90;99.90
55211;DHT22;41082;52.822;6.666;2024-03-08T08:59:16;3.90;99.90
55211;DHT22;41082;52.822;6.666;2024-03-08T09:01:46;4.00;99.90
55211;DHT22;41082;52.822;6.666;2024-03-08T09:04:15;4.00;99.90
55211;DHT22;41082;52.822;6.666;2024-03-08T09:06:42;4.10;99.90
55211;DHT22;41082;52.822;6.666;2024-03-08T09:09:08;4.10;99.90
55211;DHT22;41082;52.822;6.666;2024-03-08T09:11:39;4.10;99.90
55211;DHT22;41082;52.822;6.666;2024-03-08T09:14:07;4.10;99.90
55211;DHT22;41082;52.822;6.666;2024-03-08T09:16:33;4.20;99.90
55211;DHT22;41082;52.822;6.666;2024-03-08T09:18:59;4.20;99.90
55211;DHT22;41082;52.822;6.666;2024-03-08T09:21:25;4.30;99.90
55211;DHT22;41082;52.822;6.666;2024-03-08T09:23:53;4.30;99.90
55211;DHT22;41082;52.822;6.666;2024-03-08T09:26:19;4.40;99.90
55211;DHT22;41082;52.822;6.666;2024-03-08T09:28:45;4.40;99.90
55211;DHT22;41082;52.822;6.666;2024-03-08T09:31:11;4.50;99.90
55211;DHT22;41082;52.822;6.666;2024-03-08T09:33:37;4.50;99.90
55211;DHT22;41082;52.822;6.666;2024-03-08T09:36:08;4.50;99.90
55211;DHT22;41082;52.822;6.666;2024-03-08T09:38:34;4.60;99.90
55211;DHT22;41082;52.822;6.666;2024-03-08T09:41:03;4.60;99.90
55211;DHT22;41082;52.822;6.666;2024-03-08T09:43:29;4.70;99.90
55211;DHT22;41082;52.822;6.666;2024-03-08T09:45:57;4.70;99.90
55211;DHT22;41082;52.822;6.666;2024-03-08T09:48:23;4.80;99.90
55211;DHT22;41082;52.822;6.666;2024-03-08T09:50:49;4.80;99.90
55211;DHT22;41082;52.822;6.666;2024-03-08T09:53:15;4.90;99.90
55211;DHT22;41082;52.822;6.666;2024-03-08T09:55:42;5.00;99.90
55211;DHT22;41082;52.822;6.666;2024-03-08T09:58:12;5.00;99.90
55211;DHT22;41082;52.822;6.666;2024-03-08T10:00:57;5.10;99.90
55211;DHT22;41082;52.822;6.666;2024-03-08T10:03:23;5.20;99.90
55211;DHT22;41082;52.822;6.666;2024-03-08T10:05:51;5.30;99.90
55211;DHT22;41082;52.822;6.666;2024-03-08T10:08:17;5.30;99.90
55211;DHT22;41082;52.822;6.666;2024-03-08T10:10:43;5.40;99.90
55211;DHT22;41082;52.822;6.666;2024-03-08T10:13:11;5.50;99.90
55211;DHT22;41082;52.822;6.666;2024-03-08T10:15:40;5.50;99.90
55211;DHT22;41082;52.822;6.666;2024-03-08T10:18:06;5.60;99.90
55211;DHT22;41082;52.822;6.666;2024-03-08T10:20:32;5.60;99.90
55211;DHT22;41082;52.822;6.666;2024-03-08T10:23:01;5.70;99.90
55211;DHT22;41082;52.822;6.666;2024-03-08T10:25:29;5.70;99.90
55211;DHT22;41082;52.822;6.666;2024-03-08T10:27:58;5.80;99.90
55211;DHT22;41082;52.822;6.666;2024-03-08T10:30:23;5.90;99.90
55211;DHT22;41082;52.822;6.666;2024-03-08T10:32:49;6.00;99.90
55211;DHT22;41082;52.822;6.666;2024-03-08T10:35:15;6.00;99.90
55211;DHT22;41082;52.822;6.666;2024-03-08T10:37:49;6.00;99.90
55211;DHT22;41082;52.822;6.666;2024-03-08T10:40:24;6.10;99.90
55211;DHT22;41082;52.822;6.666;2024-03-08T10:50:53;6.30;99.90
55211;DHT22;41082;52.822;6.666;2024-03-08T10:53:20;6.30;99.90
55211;DHT22;41082;52.822;6.666;2024-03-08T10:55:47;6.40;99.90
55211;DHT22;41082;52.822;6.666;2024-03-08T10:58:14;6.40;99.90
55211;DHT22;41082;52.822;6.666;2024-03-08T11:00:41;6.50;99.90
55211;DHT22;41082;52.822;6.666;2024-03-08T11:03:07;6.60;99.90
55211;DHT22;41082;52.822;6.666;2024-03-08T11:05:54;6.60;99.90
55211;DHT22;41082;52.822;6.666;2024-03-08T11:08:20;6.70;99.90
55211;DHT22;41082;52.822;6.666;2024-03-08T11:10:50;6.70;99.90
55211;DHT22;41082;52.822;6.666;2024-03-08T11:13:37;6.80;99.90
55211;DHT22;41082;52.822;6.666;2024-03-08T11:21:43;6.90;99.90
55211;DHT22;41082;52.822;6.666;2024-03-08T11:24:11;7.00;99.90
55211;DHT22;41082;52.822;6.666;2024-03-08T11:26:39;7.10;99.90
55211;DHT22;41082;52.822;6.666;2024-03-08T11:32:09;7.20;99.90
55211;DHT22;41082;52.822;6.666;2024-03-08T11:34:36;7.20;99.90
55211;DHT22;41082;52.822;6.666;2024-03-08T11:37:05;7.30;99.90
55211;DHT22;41082;52.822;6.666;2024-03-08T11:39:35;7.30;99.90
55211;DHT22;41082;52.822;6.666;2024-03-08T11:42:03;7.40;99.90
55211;DHT22;41082;52.822;6.666;2024-03-08T11:44:30;7.40;99.90
55211;DHT22;41082;52.822;6.666;2024-03-08T11:46:57;7.50;99.90
55211;DHT22;41082;52.822;6.666;2024-03-08T11:49:22;7.50;99.90
55211;DHT22;41082;52.822;6.666;2024-03-08T11:51:52;7.60;99.90
55211;DHT22;41082;52.822;6.666;2024-03-08T11:54:19;7.60;99.90
55211;DHT22;41082;52.822;6.666;2024-03-08T11:56:45;7.60;99.90
55211;DHT22;41082;52.822;6.666;2024-03-08T11:59:13;7.70;99.90
55211;DHT22;41082;52.822;6.666;2024-03-08T12:01:40;7.70;99.90
55211;DHT22;41082;52.822;6.666;2024-03-08T12:04:05;7.70;99.90
55211;DHT22;41082;52.822;6.666;2024-03-08T12:06:39;7.70;99.90
55211;DHT22;41082;52.822;6.666;2024-03-08T12:09:08;7.80;99.90
55211;DHT22;41082;52.822;6.666;2024-03-08T12:11:36;7.80;99.90
55211;DHT22;41082;52.822;6.666;2024-03-08T12:14:03;7.80;99.90
55211;DHT22;41082;52.822;6.666;2024-03-08T12:16:28;7.80;99.90
55211;DHT22;41082;52.822;6.666;2024-03-08T12:18:54;7.90;99.90
55211;DHT22;41082;52.822;6.666;2024-03-08T12:21:20;7.90;99.90
55211;DHT22;41082;52.822;6.666;2024-03-08T12:23:48;8.00;99.90
55211;DHT22;41082;52.822;6.666;2024-03-08T12:26:28;8.00;99.90
55211;DHT22;41082;52.822;6.666;2024-03-08T12:29:09;8.00;99.90
55211;DHT22;41082;52.822;6.666;2024-03-08T12:31:39;8.00;99.90
55211;DHT22;41082;52.822;6.666;2024-03-08T12:34:08;8.10;99.90
55211;DHT22;41082;52.822;6.666;2024-03-08T12:36:35;8.10;99.90
55211;DHT22;41082;52.822;6.666;2024-03-08T12:39:06;8.20;99.90
55211;DHT22;41082;52.822;6.666;2024-03-08T12:41:41;8.20;99.90
55211;DHT22;41082;52.822;6.666;2024-03-08T12:44:07;8.20;99.90
55211;DHT22;41082;52.822;6.666;2024-03-08T12:46:37;8.20;99.90
55211;DHT22;41082;52.822;6.666;2024-03-08T12:49:09;8.30;99.90
55211;DHT22;41082;52.822;6.666;2024-03-08T12:51:36;8.30;99.90
55211;DHT22;41082;52.822;6.666;2024-03-08T12:54:05;8.30;99.90
55211;DHT22;41082;52.822;6.666;2024-03-08T12:56:34;8.30;99.90
55211;DHT22;41082;52.822;6.666;2024-03-08T12:59:01;8.40;99.90
55211;DHT22;41082;52.822;6.666;2024-03-08T13:01:27;8.40;99.90
55211;DHT22;41082;52.822;6.666;2024-03-08T13:03:53;8.40;99.90
55211;DHT22;41082;52.822;6.666;2024-03-08T13:06:20;8.40;99.90
55211;DHT22;41082;52.822;6.666;2024-03-08T13:08:50;8.40;99.90
55211;DHT22;41082;52.822;6.666;2024-03-08T13:11:21;8.40;99.90
55211;DHT22;41082;52.822;6.666;2024-03-08T13:13:47;8.40;99.90
55211;DHT22;41082;52.822;6.666;2024-03-08T13:16:13;8.50;99.90
55211;DHT22;41082;52.822;6.666;2024-03-08T13:18:41;8.50;99.90
55211;DHT22;41082;52.822;6.666;2024-03-08T13:21:12;8.50;99.90
55211;DHT22;41082;52.822;6.666;2024-03-08T13:23:41;8.50;99.90
55211;DHT22;41082;52.822;6.666;2024-03-08T13:26:12;8.50;99.90
55211;DHT22;41082;52.822;6.666;2024-03-08T13:28:47;8.50;99.90
55211;DHT22;41082;52.822;6.666;2024-03-08T13:31:22;8.50;99.90
55211;DHT22;41082;52.822;6.666;2024-03-08T13:33:48;8.50;99.90
55211;DHT22;41082;52.822;6.666;2024-03-08T13:36:14;8.50;99.90
55211;DHT22;41082;52.822;6.666;2024-03-08T13:38:44;8.50;99.90
55211;DHT22;41082;52.822;6.666;2024-03-08T13:41:14;8.50;99.90
55211;DHT22;41082;52.822;6.666;2024-03-08T13:43:41;8.50;99.90
55211;DHT22;41082;52.822;6.666;2024-03-08T13:46:07;8.60;99.90
55211;DHT22;41082;52.822;6.666;2024-03-08T13:48:33;8.60;99.90
55211;DHT22;41082;52.822;6.666;2024-03-08T13:50:59;8.60;99.90
55211;DHT22;41082;52.822;6.666;2024-03-08T13:53:26;8.60;99.90
55211;DHT22;41082;52.822;6.666;2024-03-08T13:55:52;8.60;99.90
55211;DHT22;41082;52.822;6.666;2024-03-08T13:58:17;8.60;99.90
55211;DHT22;41082;52.822;6.666;2024-03-08T14:00:43;8.70;99.90
55211;DHT22;41082;52.822;6.666;2024-03-08T14:03:11;8.70;99.90
55211;DHT22;41082;52.822;6.666;2024-03-08T14:05:41;8.70;99.90
55211;DHT22;41082;52.822;6.666;2024-03-08T14:08:11;8.70;99.90
55211;DHT22;41082;52.822;6.666;2024-03-08T14:10:38;8.70;99.90
55211;DHT22;41082;52.822;6.666;2024-03-08T14:13:04;8.70;99.90
55211;DHT22;41082;52.822;6.666;2024-03-08T14:15:34;8.70;99.90
55211;DHT22;41082;52.822;6.666;2024-03-08T14:18:00;8.70;99.90
55211;DHT22;41082;52.822;6.666;2024-03-08T14:20:27;8.70;99.90
55211;DHT22;41082;52.822;6.666;2024-03-08T14:22:53;8.70;99.90
55211;DHT22;41082;52.822;6.666;2024-03-08T14:25:20;8.70;99.90
55211;DHT22;41082;52.822;6.666;2024-03-08T14:27:50;8.70;99.90
55211;DHT22;41082;52.822;6.666;2024-03-08T14:30:19;8.70;99.90
55211;DHT22;41082;52.822;6.666;2024-03-08T14:33:01;8.70;99.90
55211;DHT22;41082;52.822;6.666;2024-03-08T14:35:27;8.70;99.90
55211;DHT22;41082;52.822;6.666;2024-03-08T14:37:55;8.70;99.90
55211;DHT22;41082;52.822;6.666;2024-03-08T14:40:23;8.70;99.90
55211;DHT22;41082;52.822;6.666;2024-03-08T14:42:49;8.70;99.90
55211;DHT22;41082;52.822;6.666;2024-03-08T14:45:16;8.70;99.90
55211;DHT22;41082;52.822;6.666;2024-03-08T14:47:42;8.60;99.90
55211;DHT22;41082;52.822;6.666;2024-03-08T14:50:09;8.60;99.90
55211;DHT22;41082;52.822;6.666;2024-03-08T14:52:35;8.60;99.90
55211;DHT22;41082;52.822;6.666;2024-03-08T14:55:01;8.60;99.90
55211;DHT22;41082;52.822;6.666;2024-03-08T14:57:28;8.60;99.90
55211;DHT22;41082;52.822;6.666;2024-03-08T14:59:57;8.50;99.90
55211;DHT22;41082;52.822;6.666;2024-03-08T15:02:28;8.50;99.90
55211;DHT22;41082;52.822;6.666;2024-03-08T15:04:53;8.50;99.90
55211;DHT22;41082;52.822;6.666;2024-03-08T15:07:23;8.50;99.90
55211;DHT22;41082;52.822;6.666;2024-03-08T15:09:49;8.50;99.90
55211;DHT22;41082;52.822;6.666;2024-03-08T15:12:15;8.40;99.90
55211;DHT22;41082;52.822;6.666;2024-03-08T15:14:41;8.40;99.90
55211;DHT22;41082;52.822;6.666;2024-03-08T15:17:10;8.40;99.90
55211;DHT22;41082;52.822;6.666;2024-03-08T15:19:44;8.30;99.90
55211;DHT22;41082;52.822;6.666;2024-03-08T15:22:10;8.30;99.90
55211;DHT22;41082;52.822;6.666;2024-03-08T15:24:36;8.30;99.90
55211;DHT22;41082;52.822;6.666;2024-03-08T15:27:03;8.30;99.90
55211;DHT22;41082;52.822;6.666;2024-03-08T15:29:29;8.20;99.90
55211;DHT22;41082;52.822;6.666;2024-03-08T15:31:55;8.20;99.90
55211;DHT22;41082;52.822;6.666;2024-03-08T15:34:20;8.20;99.90
55211;DHT22;41082;52.822;6.666;2024-03-08T15:36:50;8.20;99.90
55211;DHT22;41082;52.822;6.666;2024-03-08T15:39:19;8.20;99.90
55211;DHT22;41082;52.822;6.666;2024-03-08T15:41:48;8.10;99.90
55211;DHT22;41082;52.822;6.666;2024-03-08T15:44:13;8.20;99.90
55211;DHT22;41082;52.822;6.666;2024-03-08T15:46:40;8.10;99.90
55211;DHT22;41082;52.822;6.666;2024-03-08T15:49:06;8.10;99.90
55211;DHT22;41082;52.822;6.666;2024-03-08T15:51:32;8.10;99.90
55211;DHT22;41082;52.822;6.666;2024-03-08T15:53:58;8.10;99.90
55211;DHT22;41082;52.822;6.666;2024-03-08T15:56:24;8.00;99.90
55211;DHT22;41082;52.822;6.666;2024-03-08T15:58:51;8.00;99.90
55211;DHT22;41082;52.822;6.666;2024-03-08T16:01:17;8.00;99.90